sensor_id;sensor_type;location;lat;lon;timestamp;P1;durP1;ratioP1;P2;durP2;ratioP2
2912;SDS011;1466;48.778;9.166;2022-11-30T00:00:29;53.70;;;22.53;;
2912;SDS011;1466;48.778;9.166;2022-11-30T00:02:55;37.63;;;17.53;;
2912;SDS011;1466;48.778;9.166;2022-11-30T00:05:21;54.22;;;22.45;;
2912;SDS011;1466;48.778;9.166;2022-11-30T00:07:47;41.70;;;19.93;;
2912;SDS011;1466;48.778;9.166;2022-11-30T00:10:13;47.63;;;22.35;;
2912;SDS011;1466;48.778;9.166;2022-11-30T00:12:39;46.80;;;19.63;;
2912;SDS011;1466;48.778;9.166;2022-11-30T00:15:11;43.22;;;20.30;;
2912;SDS011;1466;48.778;9.166;2022-11-30T00:17:41;36.13;;;18.67;;
2912;SDS011;1466;48.778;9.166;2022-11-30T00:20:08;52.08;;;22.60;;
2912;SDS011;1466;48.778;9.166;2022-11-30T00:22:34;48.83;;;22.88;;
2912;SDS011;1466;48.778;9.166;2022-11-30T00:25:00;47.38;;;20.75;;
2912;SDS011;1466;48.778;9.166;2022-11-30T00:27:30;39.95;;;19.52;;
2912;SDS011;1466;48.778;9.166;2022-11-30T00:29:56;59.67;;;20.27;;
2912;SDS011;1466;48.778;9.166;2022-11-30T00:32:22;41.53;;;20.27;;
2912;SDS011;1466;48.778;9.166;2022-11-30T00:34:48;46.28;;;16.02;;
2912;SDS011;1466;48.778;9.166;2022-11-30T00:37:14;48.93;;;21.13;;
2912;SDS011;1466;48.778;9.166;2022-11-30T00:39:40;45.40;;;19.00;;
2912;SDS011;1466;48.778;9.166;2022-11-30T00:42:05;45.93;;;19.73;;
2912;SDS011;1466;48.778;9.166;2022-11-30T00:44:31;48.30;;;21.80;;
2912;SDS011;1466;48.778;9.166;2022-11-30T00:46:56;54.63;;;21.60;;
2912;SDS011;1466;48.778;9.166;2022-11-30T00:49:22;59.53;;;21.53;;
2912;SDS011;1466;48.778;9.166;2022-11-30T00:51:47;41.30;;;19.80;;
2912;SDS011;1466;48.778;9.166;2022-11-30T00:54:13;51.83;;;20.10;;
2912;SDS011;1466;48.778;9.166;2022-11-30T00:56:38;44.13;;;19.13;;
2912;SDS011;1466;48.778;9.166;2022-11-30T00:59:04;45.13;;;19.47;;
2912;SDS011;1466;48.778;9.166;2022-11-30T01:01:29;44.50;;;19.80;;
2912;SDS011;1466;48.778;9.166;2022-11-30T01:03:55;50.53;;;21.13;;
2912;SDS011;1466;48.778;9.166;2022-11-30T01:06:21;46.92;;;18.00;;
2912;SDS011;1466;48.778;9.166;2022-11-30T01:08:47;49.83;;;18.97;;
2912;SDS011;1466;48.778;9.166;2022-11-30T01:11:14;47.88;;;20.67;;
2912;SDS011;1466;48.778;9.166;2022-11-30T01:13:48;44.50;;;18.70;;
2912;SDS011;1466;48.778;9.166;2022-11-30T01:16:15;35.70;;;18.20;;
2912;SDS011;1466;48.778;9.166;2022-11-30T01:18:45;45.25;;;20.38;;
2912;SDS011;1466;48.778;9.166;2022-11-30T01:21:12;42.50;;;19.88;;
2912;SDS011;1466;48.778;9.166;2022-11-30T01:23:39;40.92;;;19.15;;
2912;SDS011;1466;48.778;9.166;2022-11-30T01:26:05;43.97;;;18.65;;
2912;SDS011;1466;48.778;9.166;2022-11-30T01:28:31;43.03;;;19.92;;
2912;SDS011;1466;48.778;9.166;2022-11-30T01:31:02;43.97;;;19.80;;
2912;SDS011;1466;48.778;9.166;2022-11-30T01:33:29;50.28;;;21.25;;
2912;SDS011;1466;48.778;9.166;2022-11-30T01:35:58;40.70;;;18.60;;
2912;SDS011;1466;48.778;9.166;2022-11-30T01:38:48;36.22;;;18.02;;
2912;SDS011;1466;48.778;9.166;2022-11-30T01:41:17;45.30;;;19.58;;
2912;SDS011;1466;48.778;9.166;2022-11-30T01:51:31;41.55;;;18.77;;
2912;SDS011;1466;48.778;9.166;2022-11-30T01:54:02;48.92;;;19.83;;
2912;SDS011;1466;48.778;9.166;2022-11-30T01:56:31;42.08;;;18.92;;
2912;SDS011;1466;48.778;9.166;2022-11-30T01:58:57;39.63;;;18.60;;
2912;SDS011;1466;48.778;9.166;2022-11-30T02:01:23;35.00;;;16.20;;
2912;SDS011;1466;48.778;9.166;2022-11-30T02:03:54;56.15;;;22.20;;
2912;SDS011;1466;48.778;9.166;2022-11-30T02:06:40;45.72;;;18.05;;
2912;SDS011;1466;48.778;9.166;2022-11-30T02:09:07;51.20;;;20.70;;
2912;SDS011;1466;48.778;9.166;2022-11-30T02:11:33;37.10;;;17.00;;
2912;SDS011;1466;48.778;9.166;2022-11-30T02:19:35;46.33;;;18.65;;
2912;SDS011;1466;48.778;9.166;2022-11-30T02:25:08;41.45;;;19.27;;
2912;SDS011;1466;48.778;9.166;2022-11-30T02:30:42;44.40;;;17.25;;
2912;SDS011;1466;48.778;9.166;2022-11-30T02:33:11;36.00;;;16.38;;
2912;SDS011;1466;48.778;9.166;2022-11-30T02:35:45;36.92;;;18.02;;
2912;SDS011;1466;48.778;9.166;2022-11-30T02:38:14;35.60;;;17.20;;
2912;SDS011;1466;48.778;9.166;2022-11-30T02:40:43;41.33;;;17.38;;
2912;SDS011;1466;48.778;9.166;2022-11-30T02:43:08;41.93;;;18.07;;
2912;SDS011;1466;48.778;9.166;2022-11-30T02:48:12;38.40;;;16.97;;
2912;SDS011;1466;48.778;9.166;2022-11-30T02:50:49;47.00;;;18.38;;
2912;SDS011;1466;48.778;9.166;2022-11-30T02:53:24;41.20;;;17.25;;
2912;SDS011;1466;48.778;9.166;2022-11-30T02:55:51;31.43;;;16.10;;
2912;SDS011;1466;48.778;9.166;2022-11-30T02:58:17;36.40;;;17.05;;
2912;SDS011;1466;48.778;9.166;2022-11-30T03:00:43;27.55;;;14.48;;
2912;SDS011;1466;48.778;9.166;2022-11-30T03:03:09;35.27;;;17.07;;
2912;SDS011;1466;48.778;9.166;2022-11-30T03:05:35;41.43;;;16.17;;
2912;SDS011;1466;48.778;9.166;2022-11-30T03:08:01;36.13;;;14.70;;
2912;SDS011;1466;48.778;9.166;2022-11-30T03:10:26;31.13;;;15.23;;
2912;SDS011;1466;48.778;9.166;2022-11-30T03:12:52;32.97;;;15.70;;
2912;SDS011;1466;48.778;9.166;2022-11-30T03:15:21;40.78;;;17.85;;
2912;SDS011;1466;48.778;9.166;2022-11-30T03:17:47;36.27;;;15.87;;
2912;SDS011;1466;48.778;9.166;2022-11-30T03:20:12;34.07;;;15.27;;
2912;SDS011;1466;48.778;9.166;2022-11-30T03:22:38;31.57;;;14.33;;
2912;SDS011;1466;48.778;9.166;2022-11-30T03:25:04;40.37;;;16.30;;
2912;SDS011;1466;48.778;9.166;2022-11-30T03:27:30;37.00;;;16.37;;
2912;SDS011;1466;48.778;9.166;2022-11-30T03:29:55;32.33;;;15.40;;
2912;SDS011;1466;48.778;9.166;2022-11-30T03:32:21;25.57;;;12.77;;
2912;SDS011;1466;48.778;9.166;2022-11-30T03:34:46;42.60;;;16.10;;
2912;SDS011;1466;48.778;9.166;2022-11-30T03:37:12;33.33;;;15.90;;
2912;SDS011;1466;48.778;9.166;2022-11-30T03:39:37;35.83;;;15.63;;
2912;SDS011;1466;48.778;9.166;2022-11-30T03:42:03;36.20;;;14.20;;
2912;SDS011;1466;48.778;9.166;2022-11-30T03:44:28;24.77;;;13.80;;
2912;SDS011;1466;48.778;9.166;2022-11-30T03:46:54;27.30;;;12.53;;
2912;SDS011;1466;48.778;9.166;2022-11-30T03:49:20;30.30;;;14.07;;
2912;SDS011;1466;48.778;9.166;2022-11-30T03:51:45;31.27;;;13.90;;
2912;SDS011;1466;48.778;9.166;2022-11-30T03:54:11;33.47;;;15.07;;
2912;SDS011;1466;48.778;9.166;2022-11-30T03:56:37;31.07;;;13.67;;
2912;SDS011;1466;48.778;9.166;2022-11-30T03:59:02;33.35;;;14.48;;
2912;SDS011;1466;48.778;9.166;2022-11-30T04:01:28;43.73;;;15.03;;
2912;SDS011;1466;48.778;9.166;2022-11-30T04:03:53;28.70;;;14.60;;
2912;SDS011;1466;48.778;9.166;2022-11-30T04:06:19;26.43;;;13.23;;
2912;SDS011;1466;48.778;9.166;2022-11-30T04:08:45;27.83;;;13.57;;
2912;SDS011;1466;48.778;9.166;2022-11-30T04:11:12;29.17;;;13.75;;
2912;SDS011;1466;48.778;9.166;2022-11-30T04:13:38;32.00;;;14.82;;
2912;SDS011;1466;48.778;9.166;2022-11-30T04:16:04;28.40;;;14.05;;
2912;SDS011;1466;48.778;9.166;2022-11-30T04:18:31;29.10;;;12.60;;
2912;SDS011;1466;48.778;9.166;2022-11-30T04:20:58;28.75;;;13.25;;
2912;SDS011;1466;48.778;9.166;2022-11-30T04:23:27;29.17;;;12.50;;
2912;SDS011;1466;48.778;9.166;2022-11-30T04:25:54;31.95;;;13.95;;
2912;SDS011;1466;48.778;9.166;2022-11-30T04:28:20;28.95;;;12.98;;
2912;SDS011;1466;48.778;9.166;2022-11-30T04:30:46;35.37;;;13.20;;
2912;SDS011;1466;48.778;9.166;2022-11-30T04:33:12;28.03;;;13.80;;
2912;SDS011;1466;48.778;9.166;2022-11-30T04:35:39;29.77;;;12.52;;
2912;SDS011;1466;48.778;9.166;2022-11-30T04:38:07;32.03;;;14.30;;
2912;SDS011;1466;48.778;9.166;2022-11-30T04:40:33;26.03;;;12.87;;
2912;SDS011;1466;48.778;9.166;2022-11-30T04:43:02;43.53;;;15.93;;
2912;SDS011;1466;48.778;9.166;2022-11-30T04:45:28;30.60;;;13.97;;
2912;SDS011;1466;48.778;9.166;2022-11-30T04:47:53;31.80;;;14.27;;
2912;SDS011;1466;48.778;9.166;2022-11-30T04:50:19;22.10;;;10.57;;
2912;SDS011;1466;48.778;9.166;2022-11-30T04:52:45;42.00;;;15.17;;
2912;SDS011;1466;48.778;9.166;2022-11-30T04:55:11;24.10;;;11.10;;
2912;SDS011;1466;48.778;9.166;2022-11-30T04:57:36;24.17;;;11.23;;
2912;SDS011;1466;48.778;9.166;2022-11-30T05:00:03;26.30;;;12.70;;
2912;SDS011;1466;48.778;9.166;2022-11-30T05:02:29;23.95;;;12.75;;
2912;SDS011;1466;48.778;9.166;2022-11-30T05:04:55;27.80;;;13.20;;
2912;SDS011;1466;48.778;9.166;2022-11-30T05:07:21;28.90;;;13.00;;
2912;SDS011;1466;48.778;9.166;2022-11-30T05:09:46;28.73;;;11.47;;
2912;SDS011;1466;48.778;9.166;2022-11-30T05:12:12;23.37;;;11.80;;
2912;SDS011;1466;48.778;9.166;2022-11-30T05:14:37;31.30;;;15.20;;
2912;SDS011;1466;48.778;9.166;2022-11-30T05:17:03;24.23;;;12.40;;
2912;SDS011;1466;48.778;9.166;2022-11-30T05:19:28;36.07;;;15.60;;
2912;SDS011;1466;48.778;9.166;2022-11-30T05:21:54;27.73;;;13.30;;
2912;SDS011;1466;48.778;9.166;2022-11-30T05:24:19;19.60;;;11.17;;
2912;SDS011;1466;48.778;9.166;2022-11-30T05:26:45;25.73;;;11.73;;
2912;SDS011;1466;48.778;9.166;2022-11-30T05:29:10;30.70;;;13.33;;
2912;SDS011;1466;48.778;9.166;2022-11-30T05:31:36;26.57;;;11.80;;
2912;SDS011;1466;48.778;9.166;2022-11-30T05:34:03;33.85;;;12.82;;
2912;SDS011;1466;48.778;9.166;2022-11-30T05:36:28;30.27;;;13.07;;
2912;SDS011;1466;48.778;9.166;2022-11-30T05:38:54;22.37;;;11.50;;
2912;SDS011;1466;48.778;9.166;2022-11-30T05:41:19;24.07;;;11.40;;
2912;SDS011;1466;48.778;9.166;2022-11-30T05:43:45;35.10;;;14.30;;
2912;SDS011;1466;48.778;9.166;2022-11-30T05:46:10;30.40;;;13.30;;
2912;SDS011;1466;48.778;9.166;2022-11-30T05:48:36;22.87;;;11.53;;
2912;SDS011;1466;48.778;9.166;2022-11-30T05:51:06;27.95;;;12.95;;
2912;SDS011;1466;48.778;9.166;2022-11-30T05:53:36;24.40;;;10.88;;
2912;SDS011;1466;48.778;9.166;2022-11-30T05:56:03;29.08;;;12.55;;
2912;SDS011;1466;48.778;9.166;2022-11-30T05:58:31;28.25;;;12.35;;
2912;SDS011;1466;48.778;9.166;2022-11-30T06:00:57;25.70;;;11.20;;
2912;SDS011;1466;48.778;9.166;2022-11-30T06:03:22;34.40;;;13.40;;
2912;SDS011;1466;48.778;9.166;2022-11-30T06:05:49;27.93;;;12.30;;
2912;SDS011;1466;48.778;9.166;2022-11-30T06:08:15;28.90;;;13.50;;
2912;SDS011;1466;48.778;9.166;2022-11-30T06:10:41;22.50;;;12.23;;
2912;SDS011;1466;48.778;9.166;2022-11-30T06:13:07;31.10;;;11.43;;
2912;SDS011;1466;48.778;9.166;2022-11-30T06:15:35;26.23;;;12.77;;
2912;SDS011;1466;48.778;9.166;2022-11-30T06:18:02;33.67;;;13.82;;
2912;SDS011;1466;48.778;9.166;2022-11-30T06:20:28;25.33;;;12.90;;
2912;SDS011;1466;48.778;9.166;2022-11-30T06:22:53;29.03;;;13.73;;
2912;SDS011;1466;48.778;9.166;2022-11-30T06:25:19;25.63;;;9.47;;
2912;SDS011;1466;48.778;9.166;2022-11-30T06:27:45;37.35;;;14.07;;
2912;SDS011;1466;48.778;9.166;2022-11-30T06:30:11;20.67;;;11.13;;
2912;SDS011;1466;48.778;9.166;2022-11-30T06:32:37;29.77;;;13.02;;
2912;SDS011;1466;48.778;9.166;2022-11-30T06:35:02;43.20;;;16.13;;
2912;SDS011;1466;48.778;9.166;2022-11-30T06:37:28;46.30;;;15.47;;
2912;SDS011;1466;48.778;9.166;2022-11-30T06:39:54;25.27;;;12.50;;
2912;SDS011;1466;48.778;9.166;2022-11-30T06:42:19;27.73;;;12.50;;
2912;SDS011;1466;48.778;9.166;2022-11-30T06:44:45;38.97;;;13.63;;
2912;SDS011;1466;48.778;9.166;2022-11-30T06:47:12;25.55;;;12.32;;
2912;SDS011;1466;48.778;9.166;2022-11-30T06:49:37;24.90;;;12.83;;
2912;SDS011;1466;48.778;9.166;2022-11-30T06:52:03;26.90;;;11.47;;
2912;SDS011;1466;48.778;9.166;2022-11-30T06:54:29;23.03;;;10.90;;
2912;SDS011;1466;48.778;9.166;2022-11-30T06:56:54;27.53;;;13.07;;
2912;SDS011;1466;48.778;9.166;2022-11-30T06:59:21;40.30;;;14.23;;
2912;SDS011;1466;48.778;9.166;2022-11-30T07:01:47;31.20;;;13.00;;
2912;SDS011;1466;48.778;9.166;2022-11-30T07:04:13;22.03;;;11.07;;
2912;SDS011;1466;48.778;9.166;2022-11-30T07:06:38;26.33;;;11.33;;
2912;SDS011;1466;48.778;9.166;2022-11-30T07:09:04;25.67;;;11.40;;
2912;SDS011;1466;48.778;9.166;2022-11-30T07:11:30;27.90;;;12.40;;
2912;SDS011;1466;48.778;9.166;2022-11-30T07:13:57;33.08;;;13.25;;
2912;SDS011;1466;48.778;9.166;2022-11-30T07:16:22;23.60;;;12.43;;
2912;SDS011;1466;48.778;9.166;2022-11-30T07:18:48;20.67;;;11.67;;
2912;SDS011;1466;48.778;9.166;2022-11-30T07:21:13;24.50;;;11.93;;
2912;SDS011;1466;48.778;9.166;2022-11-30T07:23:39;26.90;;;12.87;;
2912;SDS011;1466;48.778;9.166;2022-11-30T07:26:24;33.28;;;13.13;;
2912;SDS011;1466;48.778;9.166;2022-11-30T07:28:50;26.33;;;12.18;;
2912;SDS011;1466;48.778;9.166;2022-11-30T07:33:55;26.80;;;11.80;;
2912;SDS011;1466;48.778;9.166;2022-11-30T07:36:26;31.23;;;12.93;;
2912;SDS011;1466;48.778;9.166;2022-11-30T07:38:53;32.38;;;12.25;;
2912;SDS011;1466;48.778;9.166;2022-11-30T07:41:19;34.45;;;13.25;;
2912;SDS011;1466;48.778;9.166;2022-11-30T07:43:45;27.00;;;12.47;;
2912;SDS011;1466;48.778;9.166;2022-11-30T07:46:11;24.83;;;11.87;;
2912;SDS011;1466;48.778;9.166;2022-11-30T07:48:38;36.97;;;13.95;;
2912;SDS011;1466;48.778;9.166;2022-11-30T07:51:04;31.40;;;13.00;;
2912;SDS011;1466;48.778;9.166;2022-11-30T07:53:34;26.10;;;12.85;;
2912;SDS011;1466;48.778;9.166;2022-11-30T07:56:00;34.83;;;14.43;;
2912;SDS011;1466;48.778;9.166;2022-11-30T07:58:27;30.90;;;13.57;;
2912;SDS011;1466;48.778;9.166;2022-11-30T08:00:54;28.52;;;13.65;;
2912;SDS011;1466;48.778;9.166;2022-11-30T08:03:19;27.77;;;12.40;;
2912;SDS011;1466;48.778;9.166;2022-11-30T08:05:45;38.27;;;12.97;;
2912;SDS011;1466;48.778;9.166;2022-11-30T08:08:10;32.17;;;14.67;;
2912;SDS011;1466;48.778;9.166;2022-11-30T08:10:36;26.80;;;11.77;;
2912;SDS011;1466;48.778;9.166;2022-11-30T08:13:01;27.13;;;13.87;;
2912;SDS011;1466;48.778;9.166;2022-11-30T08:15:27;28.50;;;13.93;;
2912;SDS011;1466;48.778;9.166;2022-11-30T08:17:52;31.87;;;14.33;;
2912;SDS011;1466;48.778;9.166;2022-11-30T08:20:19;26.90;;;12.73;;
2912;SDS011;1466;48.778;9.166;2022-11-30T08:22:45;27.00;;;12.73;;
2912;SDS011;1466;48.778;9.166;2022-11-30T08:25:11;26.73;;;11.50;;
2912;SDS011;1466;48.778;9.166;2022-11-30T08:27:36;33.77;;;14.43;;
2912;SDS011;1466;48.778;9.166;2022-11-30T08:30:02;24.43;;;10.60;;
2912;SDS011;1466;48.778;9.166;2022-11-30T08:32:29;25.83;;;12.90;;
2912;SDS011;1466;48.778;9.166;2022-11-30T08:34:55;27.90;;;11.82;;
2912;SDS011;1466;48.778;9.166;2022-11-30T08:37:21;37.63;;;16.37;;
2912;SDS011;1466;48.778;9.166;2022-11-30T08:39:46;31.37;;;13.70;;
2912;SDS011;1466;48.778;9.166;2022-11-30T08:42:12;36.10;;;13.37;;
2912;SDS011;1466;48.778;9.166;2022-11-30T08:44:37;30.00;;;14.57;;
2912;SDS011;1466;48.778;9.166;2022-11-30T08:47:03;26.53;;;12.80;;
2912;SDS011;1466;48.778;9.166;2022-11-30T08:49:29;28.65;;;14.20;;
2912;SDS011;1466;48.778;9.166;2022-11-30T08:51:55;40.47;;;14.13;;
2912;SDS011;1466;48.778;9.166;2022-11-30T08:54:21;27.40;;;13.70;;
2912;SDS011;1466;48.778;9.166;2022-11-30T08:56:46;25.77;;;11.90;;
2912;SDS011;1466;48.778;9.166;2022-11-30T08:59:12;29.63;;;13.10;;
2912;SDS011;1466;48.778;9.166;2022-11-30T09:01:37;30.90;;;12.97;;
2912;SDS011;1466;48.778;9.166;2022-11-30T09:04:03;35.73;;;14.37;;
2912;SDS011;1466;48.778;9.166;2022-11-30T09:06:29;34.70;;;13.00;;
2912;SDS011;1466;48.778;9.166;2022-11-30T09:08:56;33.30;;;13.20;;
2912;SDS011;1466;48.778;9.166;2022-11-30T09:13:53;37.47;;;14.38;;
2912;SDS011;1466;48.778;9.166;2022-11-30T09:16:20;35.30;;;13.30;;
2912;SDS011;1466;48.778;9.166;2022-11-30T09:18:46;27.23;;;11.73;;
2912;SDS011;1466;48.778;9.166;2022-11-30T09:21:15;27.98;;;12.77;;
2912;SDS011;1466;48.778;9.166;2022-11-30T09:23:42;30.48;;;13.27;;
2912;SDS011;1466;48.778;9.166;2022-11-30T09:26:10;30.23;;;12.82;;
2912;SDS011;1466;48.778;9.166;2022-11-30T09:28:37;32.20;;;11.85;;
2912;SDS011;1466;48.778;9.166;2022-11-30T09:31:04;31.40;;;14.10;;
2912;SDS011;1466;48.778;9.166;2022-11-30T09:33:32;34.67;;;14.38;;
2912;SDS011;1466;48.778;9.166;2022-11-30T09:35:59;29.48;;;13.20;;
2912;SDS011;1466;48.778;9.166;2022-11-30T09:38:26;21.90;;;9.70;;
2912;SDS011;1466;48.778;9.166;2022-11-30T09:40:53;35.38;;;13.77;;
2912;SDS011;1466;48.778;9.166;2022-11-30T09:46:12;27.30;;;12.20;;
2912;SDS011;1466;48.778;9.166;2022-11-30T09:51:37;29.73;;;11.55;;
2912;SDS011;1466;48.778;9.166;2022-11-30T09:54:13;18.40;;;8.32;;
2912;SDS011;1466;48.778;9.166;2022-11-30T09:56:45;23.88;;;9.73;;
2912;SDS011;1466;48.778;9.166;2022-11-30T10:01:48;29.60;;;12.13;;
2912;SDS011;1466;48.778;9.166;2022-11-30T10:04:21;31.57;;;11.70;;
2912;SDS011;1466;48.778;9.166;2022-11-30T10:09:37;28.17;;;13.35;;
2912;SDS011;1466;48.778;9.166;2022-11-30T10:12:29;33.08;;;14.93;;
2912;SDS011;1466;48.778;9.166;2022-11-30T10:17:53;50.65;;;16.15;;
2912;SDS011;1466;48.778;9.166;2022-11-30T10:26:07;22.77;;;10.63;;
2912;SDS011;1466;48.778;9.166;2022-11-30T10:28:40;30.15;;;12.73;;
2912;SDS011;1466;48.778;9.166;2022-11-30T10:31:11;23.88;;;12.18;;
2912;SDS011;1466;48.778;9.166;2022-11-30T10:33:42;32.85;;;13.82;;
2912;SDS011;1466;48.778;9.166;2022-11-30T10:36:59;25.02;;;10.43;;
2912;SDS011;1466;48.778;9.166;2022-11-30T10:39:28;29.92;;;13.30;;
2912;SDS011;1466;48.778;9.166;2022-11-30T10:42:20;33.10;;;12.93;;
2912;SDS011;1466;48.778;9.166;2022-11-30T10:45:11;30.48;;;12.05;;
2912;SDS011;1466;48.778;9.166;2022-11-30T10:47:49;30.70;;;13.68;;
2912;SDS011;1466;48.778;9.166;2022-11-30T10:50:24;30.63;;;10.82;;
2912;SDS011;1466;48.778;9.166;2022-11-30T10:52:54;21.92;;;10.90;;
2912;SDS011;1466;48.778;9.166;2022-11-30T10:55:22;25.27;;;11.60;;
2912;SDS011;1466;48.778;9.166;2022-11-30T10:57:52;28.98;;;12.50;;
2912;SDS011;1466;48.778;9.166;2022-11-30T11:00:21;27.80;;;12.32;;
2912;SDS011;1466;48.778;9.166;2022-11-30T11:02:47;31.37;;;12.70;;
2912;SDS011;1466;48.778;9.166;2022-11-30T11:05:21;30.65;;;12.63;;
2912;SDS011;1466;48.778;9.166;2022-11-30T11:07:48;26.00;;;12.73;;
2912;SDS011;1466;48.778;9.166;2022-11-30T11:10:16;38.15;;;15.15;;
2912;SDS011;1466;48.778;9.166;2022-11-30T11:12:53;31.40;;;13.32;;
2912;SDS011;1466;48.778;9.166;2022-11-30T11:15:29;28.08;;;12.90;;
2912;SDS011;1466;48.778;9.166;2022-11-30T11:20:45;28.15;;;12.48;;
2912;SDS011;1466;48.778;9.166;2022-11-30T11:23:26;36.77;;;13.90;;
2912;SDS011;1466;48.778;9.166;2022-11-30T11:25:57;30.00;;;12.77;;
2912;SDS011;1466;48.778;9.166;2022-11-30T11:28:22;30.10;;;13.80;;
2912;SDS011;1466;48.778;9.166;2022-11-30T11:30:51;29.25;;;12.00;;
2912;SDS011;1466;48.778;9.166;2022-11-30T11:33:22;31.42;;;13.05;;
2912;SDS011;1466;48.778;9.166;2022-11-30T11:35:51;26.35;;;11.82;;
2912;SDS011;1466;48.778;9.166;2022-11-30T11:43:30;23.52;;;10.02;;
2912;SDS011;1466;48.778;9.166;2022-11-30T11:45:58;30.42;;;12.90;;
2912;SDS011;1466;48.778;9.166;2022-11-30T11:48:40;24.42;;;10.90;;
2912;SDS011;1466;48.778;9.166;2022-11-30T11:51:35;26.67;;;11.60;;
2912;SDS011;1466;48.778;9.166;2022-11-30T11:54:05;36.00;;;13.20;;
2912;SDS011;1466;48.778;9.166;2022-11-30T11:56:37;41.03;;;13.43;;
2912;SDS011;1466;48.778;9.166;2022-11-30T12:04:23;29.77;;;11.38;;
2912;SDS011;1466;48.778;9.166;2022-11-30T12:07:23;28.38;;;12.75;;
2912;SDS011;1466;48.778;9.166;2022-11-30T12:10:20;33.75;;;12.80;;
2912;SDS011;1466;48.778;9.166;2022-11-30T12:12:48;27.73;;;11.73;;
2912;SDS011;1466;48.778;9.166;2022-11-30T12:15:14;27.33;;;11.40;;
2912;SDS011;1466;48.778;9.166;2022-11-30T12:20:46;30.75;;;12.52;;
2912;SDS011;1466;48.778;9.166;2022-11-30T12:26:11;22.20;;;11.60;;
2912;SDS011;1466;48.778;9.166;2022-11-30T12:31:20;19.60;;;9.53;;
2912;SDS011;1466;48.778;9.166;2022-11-30T12:42:13;39.78;;;12.20;;
2912;SDS011;1466;48.778;9.166;2022-11-30T12:44:56;31.92;;;11.95;;
2912;SDS011;1466;48.778;9.166;2022-11-30T12:52:52;28.38;;;12.40;;
2912;SDS011;1466;48.778;9.166;2022-11-30T12:55:27;33.22;;;11.70;;
2912;SDS011;1466;48.778;9.166;2022-11-30T12:58:07;34.80;;;12.20;;
2912;SDS011;1466;48.778;9.166;2022-11-30T13:06:14;28.55;;;11.60;;
2912;SDS011;1466;48.778;9.166;2022-11-30T13:11:28;42.25;;;13.18;;
2912;SDS011;1466;48.778;9.166;2022-11-30T13:14:00;33.60;;;12.02;;
2912;SDS011;1466;48.778;9.166;2022-11-30T13:16:28;33.55;;;12.40;;
2912;SDS011;1466;48.778;9.166;2022-11-30T13:18:58;23.52;;;9.93;;
2912;SDS011;1466;48.778;9.166;2022-11-30T13:21:36;32.08;;;13.18;;
2912;SDS011;1466;48.778;9.166;2022-11-30T13:24:19;42.13;;;13.10;;
2912;SDS011;1466;48.778;9.166;2022-11-30T13:26:51;23.75;;;11.23;;
2912;SDS011;1466;48.778;9.166;2022-11-30T13:32:17;27.92;;;10.77;;
2912;SDS011;1466;48.778;9.166;2022-11-30T13:34:43;28.00;;;12.90;;
2912;SDS011;1466;48.778;9.166;2022-11-30T13:39:49;27.67;;;11.73;;
2912;SDS011;1466;48.778;9.166;2022-11-30T13:47:59;24.13;;;9.63;;
2912;SDS011;1466;48.778;9.166;2022-11-30T13:58:15;33.42;;;12.13;;
2912;SDS011;1466;48.778;9.166;2022-11-30T14:05:47;42.92;;;14.18;;
2912;SDS011;1466;48.778;9.166;2022-11-30T14:10:45;29.57;;;11.50;;
2912;SDS011;1466;48.778;9.166;2022-11-30T14:18:19;41.93;;;14.60;;
2912;SDS011;1466;48.778;9.166;2022-11-30T14:26:27;26.92;;;10.75;;
2912;SDS011;1466;48.778;9.166;2022-11-30T14:31:36;31.20;;;12.55;;
2912;SDS011;1466;48.778;9.166;2022-11-30T14:36:58;33.17;;;13.07;;
2912;SDS011;1466;48.778;9.166;2022-11-30T14:41:52;33.77;;;13.23;;
2912;SDS011;1466;48.778;9.166;2022-11-30T14:44:18;34.40;;;12.10;;
2912;SDS011;1466;48.778;9.166;2022-11-30T14:46:44;22.57;;;11.53;;
2912;SDS011;1466;48.778;9.166;2022-11-30T14:49:19;29.00;;;12.10;;
2912;SDS011;1466;48.778;9.166;2022-11-30T14:51:50;42.28;;;13.95;;
2912;SDS011;1466;48.778;9.166;2022-11-30T14:57:18;45.08;;;14.80;;
2912;SDS011;1466;48.778;9.166;2022-11-30T14:59:53;30.83;;;12.50;;
2912;SDS011;1466;48.778;9.166;2022-11-30T15:05:01;18.55;;;9.10;;
2912;SDS011;1466;48.778;9.166;2022-11-30T15:07:31;33.30;;;13.32;;
2912;SDS011;1466;48.778;9.166;2022-11-30T15:10:43;36.40;;;12.52;;
2912;SDS011;1466;48.778;9.166;2022-11-30T15:12:53;30.33;;;13.77;;
2912;SDS011;1466;48.778;9.166;2022-11-30T15:15:23;31.33;;;13.23;;
2912;SDS011;1466;48.778;9.166;2022-11-30T15:17:57;18.50;;;8.68;;
2912;SDS011;1466;48.778;9.166;2022-11-30T15:23:02;26.52;;;12.00;;
2912;SDS011;1466;48.778;9.166;2022-11-30T15:25:47;25.87;;;12.87;;
2912;SDS011;1466;48.778;9.166;2022-11-30T15:28:23;35.33;;;13.18;;
2912;SDS011;1466;48.778;9.166;2022-11-30T15:30:56;35.80;;;13.48;;
2912;SDS011;1466;48.778;9.166;2022-11-30T15:33:27;37.20;;;13.75;;
2912;SDS011;1466;48.778;9.166;2022-11-30T15:36:00;37.28;;;12.82;;
2912;SDS011;1466;48.778;9.166;2022-11-30T15:38:27;33.45;;;12.85;;
2912;SDS011;1466;48.778;9.166;2022-11-30T15:41:04;27.27;;;11.47;;
2912;SDS011;1466;48.778;9.166;2022-11-30T15:43:46;28.52;;;12.65;;
2912;SDS011;1466;48.778;9.166;2022-11-30T15:46:25;29.70;;;13.13;;
2912;SDS011;1466;48.778;9.166;2022-11-30T15:51:37;31.33;;;12.55;;
2912;SDS011;1466;48.778;9.166;2022-11-30T15:54:08;37.20;;;13.07;;
2912;SDS011;1466;48.778;9.166;2022-11-30T15:56:33;23.57;;;11.50;;
2912;SDS011;1466;48.778;9.166;2022-11-30T16:01:50;40.58;;;13.57;;
2912;SDS011;1466;48.778;9.166;2022-11-30T16:07:23;32.30;;;10.48;;
2912;SDS011;1466;48.778;9.166;2022-11-30T16:09:51;42.55;;;13.98;;
2912;SDS011;1466;48.778;9.166;2022-11-30T16:12:29;30.83;;;12.35;;
2912;SDS011;1466;48.778;9.166;2022-11-30T16:14:55;31.57;;;12.60;;
2912;SDS011;1466;48.778;9.166;2022-11-30T16:17:21;26.47;;;11.70;;
2912;SDS011;1466;48.778;9.166;2022-11-30T16:19:47;39.47;;;13.23;;
2912;SDS011;1466;48.778;9.166;2022-11-30T16:22:13;26.60;;;12.07;;
2912;SDS011;1466;48.778;9.166;2022-11-30T16:24:39;30.20;;;12.05;;
2912;SDS011;1466;48.778;9.166;2022-11-30T16:27:11;32.00;;;12.63;;
2912;SDS011;1466;48.778;9.166;2022-11-30T16:29:41;22.55;;;10.45;;
2912;SDS011;1466;48.778;9.166;2022-11-30T16:32:09;35.50;;;14.57;;
2912;SDS011;1466;48.778;9.166;2022-11-30T16:34:38;32.50;;;11.27;;
2912;SDS011;1466;48.778;9.166;2022-11-30T16:37:04;29.25;;;11.75;;
2912;SDS011;1466;48.778;9.166;2022-11-30T16:39:32;50.17;;;16.05;;
2912;SDS011;1466;48.778;9.166;2022-11-30T16:41:57;37.43;;;14.33;;
2912;SDS011;1466;48.778;9.166;2022-11-30T16:44:23;32.20;;;12.77;;
2912;SDS011;1466;48.778;9.166;2022-11-30T16:46:48;35.80;;;16.00;;
2912;SDS011;1466;48.778;9.166;2022-11-30T16:49:15;44.60;;;15.13;;
2912;SDS011;1466;48.778;9.166;2022-11-30T16:51:41;26.90;;;11.80;;
2912;SDS011;1466;48.778;9.166;2022-11-30T16:54:13;29.57;;;12.20;;
2912;SDS011;1466;48.778;9.166;2022-11-30T16:56:40;26.70;;;12.05;;
2912;SDS011;1466;48.778;9.166;2022-11-30T16:59:06;38.30;;;14.25;;
2912;SDS011;1466;48.778;9.166;2022-11-30T17:04:10;35.35;;;12.60;;
2912;SDS011;1466;48.778;9.166;2022-11-30T17:06:46;27.67;;;10.25;;
2912;SDS011;1466;48.778;9.166;2022-11-30T17:09:14;25.88;;;10.77;;
2912;SDS011;1466;48.778;9.166;2022-11-30T17:11:40;35.15;;;11.85;;
2912;SDS011;1466;48.778;9.166;2022-11-30T17:14:06;55.25;;;15.50;;
2912;SDS011;1466;48.778;9.166;2022-11-30T17:16:36;33.72;;;11.60;;
2912;SDS011;1466;48.778;9.166;2022-11-30T17:19:01;41.30;;;15.43;;
2912;SDS011;1466;48.778;9.166;2022-11-30T17:21:27;32.50;;;13.93;;
2912;SDS011;1466;48.778;9.166;2022-11-30T17:23:54;37.05;;;14.05;;
2912;SDS011;1466;48.778;9.166;2022-11-30T17:26:20;42.90;;;14.80;;
2912;SDS011;1466;48.778;9.166;2022-11-30T17:28:46;34.80;;;15.00;;
2912;SDS011;1466;48.778;9.166;2022-11-30T17:31:12;34.73;;;13.07;;